Wetterdaten: aktuell Donnerstag, 30.06.2022 12:41
Datum Zeit Temp. A. Feuchte A. Luftdruck Regen Wind Taupunkt Windchill Windben
30.06.2022 12:41 27,4 C 53 % 1010,4 hPa 0,0 l/m 3,1 km/h (1 Bft) 17,0 C 27,4 C 8,0 km/h (2 Bft)
30.06.2022 12:30 26,9 C 53 % 1010,4 hPa 0,0 l/m 2,9 km/h (1 Bft) 16,5 C 26,9 C 8,0 km/h (2 Bft)
30.06.2022 12:20 27,2 C 53 % 1010,5 hPa 0,0 l/m 3,3 km/h (1 Bft) 16,8 C 27,2 C 12,9 km/h (3 Bft)
30.06.2022 12:11 27,5 C 51 % 1010,5 hPa 0,0 l/m 4,4 km/h (1 Bft) 16,4 C 27,5 C 11,3 km/h (2 Bft)
30.06.2022 12:00 27,6 C 52 % 1010,6 hPa 0,0 l/m 3,2 km/h (1 Bft) 16,8 C 27,6 C 11,3 km/h (2 Bft)
30.06.2022 11:50 27,4 C 52 % 1010,6 hPa 0,0 l/m 5,5 km/h (1 Bft) 16,7 C 27,4 C 16,1 km/h (3 Bft)
30.06.2022 11:41 27,3 C 51 % 1010,7 hPa 0,0 l/m 4,0 km/h (1 Bft) 16,3 C 27,3 C 11,3 km/h (2 Bft)
30.06.2022 11:30 26,9 C 55 % 1010,8 hPa 0,0 l/m 3,4 km/h (1 Bft) 17,1 C 26,9 C 11,3 km/h (2 Bft)
30.06.2022 11:20 26,8 C 54 % 1010,8 hPa 0,0 l/m 2,5 km/h (1 Bft) 16,7 C 26,8 C 6,4 km/h (2 Bft)
30.06.2022 11:11 26,6 C 59 % 1010,8 hPa 0,0 l/m 2,6 km/h (1 Bft) 17,9 C 26,6 C 6,4 km/h (2 Bft)
30.06.2022 11:00 26,2 C 66 % 1010,8 hPa 0,0 l/m 3,4 km/h (1 Bft) 19,3 C 26,2 C 9,7 km/h (2 Bft)
30.06.2022 10:50 25,9 C 68 % 1010,9 hPa 0,0 l/m 2,0 km/h (1 Bft) 19,5 C 25,9 C 9,7 km/h (2 Bft)
30.06.2022 10:41 25,8 C 68 % 1011,0 hPa 0,0 l/m 3,5 km/h (1 Bft) 19,4 C 25,8 C 8,0 km/h (2 Bft)
30.06.2022 10:30 25,4 C 73 % 1011,1 hPa 0,0 l/m 3,9 km/h (1 Bft) 20,2 C 25,4 C 11,3 km/h (2 Bft)
30.06.2022 10:20 25,1 C 75 % 1011,1 hPa 0,0 l/m 1,5 km/h (1 Bft) 20,3 C 25,1 C 4,8 km/h (1 Bft)
30.06.2022 10:11 24,8 C 75 % 1011,2 hPa 0,0 l/m 1,9 km/h (1 Bft) 20,1 C 24,8 C 8,0 km/h (2 Bft)
30.06.2022 10:00 24,4 C 78 % 1011,4 hPa 0,0 l/m 3,2 km/h (1 Bft) 20,3 C 24,4 C 8,0 km/h (2 Bft)
30.06.2022 09:50 24,1 C 77 % 1011,3 hPa 0,0 l/m 2,5 km/h (1 Bft) 19,8 C 24,1 C 6,4 km/h (2 Bft)
30.06.2022 09:40 23,8 C 79 % 1011,3 hPa 0,0 l/m 2,4 km/h (1 Bft) 19,9 C 23,8 C 4,8 km/h (1 Bft)
30.06.2022 09:30 23,3 C 83 % 1011,3 hPa 0,0 l/m 2,2 km/h (1 Bft) 20,2 C 23,3 C 9,7 km/h (2 Bft)
30.06.2022 09:20 22,9 C 82 % 1011,4 hPa 0,0 l/m 3,4 km/h (1 Bft) 19,7 C 22,9 C 9,7 km/h (2 Bft)
_ Min-Zeit 06:30 11:41 12:30 - 00:30 00:21 05:20 00:30
Minimum _ 16,4 C 51 % 1010,4 hPa - 0,0 km/h (0 Bft) 14,5 C 16,5 C 0,0 km/h (0 Bft)
_ Max-Zeit 12:11 07:00 00:00 00:00 11:50 10:20 12:00 11:50
Maximum _ 27,7 C 96 % 1011,9 hPa 0,0 l/m 5,5 km/h
O-NO (1 Bft)
20,3 C 27,6 C 16,1 km/h
O (3 Bft)
Durchschnitt _ 20,2 C 81 % 1011,4 hPa #0,0 l/m 1,6 km/h (1 Bft) 16,6 C 20,2 C 4,8 km/h (1 Bft)